Last 30 Days

Kelseyville

Daily Data | America/Los_Angeles
as of 9/4/26 7:01 PM PDT
Date Daily Max Temp (°F) Time of Max Temp Daily Min Temp (°F) Time of Min Temp Daily Rain (In) Month Precip (In) Season Precip (In) Daily ETo (in) 7 Day ETo (in) Daily Solar Rad (Cal/cm2) Wind Spd (mph) Daily Max Wind (mph) Time of Max Wind Max Wind Dir (°) Dew Pt (°F) Daily Max RH (%) Daily Min RH (%) Hrs <= 32F (hrs) Hrs <= 28F (hrs) Daily Leaf Wet (Hrs) Degree Hrs (hrs) Hrs 70-85F (hrs) Hrs > 95F (hrs) Powdery Mildew Stress (pts) Daily Max Rain Intensity (In/Hr) Time of Max Rain Intensity Max 1 Min Rain (In) Max 1 Min Rain Time Max 15 Min Rain (In) Max 15 Min Precip Time Max 60 Min Rain (In) Max 60 Min Rain Time MinBV Day (V)
9/3/26 70.7 1409 48.8 0058 0.00 0.02 0.02 0.072 1.07 193 3.4 17.5 1257 WSW | 243 53.4 97 47 0.0 0.0 2.9 9.2 0.14 0.00 0 - - - - - - - - 12.2
9/2/26 71.8 1523 54.0 0101 0.02 0.02 0.02 0.121 1.22 385 3.1 17.3 1732 WSW | 244 51.5 98 43 0.0 0.0 4.4 26.1 0.71 0.00 0 0.01 0614 0.01 0615 0.01 0615 0.01 0615 12.2
9/1/26 71.8 1419 47.7 0142 0.00 0.00 0.00 0.112 1.32 334 3.3 18.6 1526 SSW | 196 49.6 94 45 0.0 0.0 0.6 18.2 0.50 0.00 10 - - - - - - - - 12.1
8/31/26 83.6 1310 46.4 0548 0.00 0.00 0.00 0.199 1.43 590 3.3 16.2 1658 SSW | 209 48.8 91 31 0.0 0.0 0.0 131.1 9.59 0.00 20 - - - - - - - - 12.1
8/30/26 90.9 1624 45.3 0607 0.00 0.00 0.00 0.206 1.46 599 2.4 16.0 1751 WSW | 242 47.2 89 17 0.0 0.0 0.0 188.8 3.28 0.00 0 - - - - - - - - 12.1
8/29/26 87.2 1504 41.5 0647 0.00 0.00 0.00 0.206 1.47 608 2.7 16.0 1719 WNW | 288 43.8 85 23 0.0 0.0 0.0 155.2 4.10 0.00 10 - - - - - - - - 12.2
8/28/26 84.3 1547 48.0 0051 0.00 0.00 0.00 0.156 1.49 395 2.5 15.6 1547 W | 275 42.5 75 13 0.0 0.0 0.0 148.3 10.39 0.00 20 - - - - - - - - 12.2
8/27/26 94.5 1550 50.7 0640 0.00 0.00 0.00 0.220 1.54 589 2.8 14.2 1620 W | 269 49.5 89 16 0.0 0.0 0.0 260.8 2.65 0.00 0 - - - - - - - - 12.2
8/26/26 94.6 1546 43.8 0633 0.00 0.00 0.00 0.221 1.53 626 2.5 13.8 1657 W | 259 45.7 88 13 0.0 0.0 0.0 227.4 3.06 0.00 0 - - - - - - - - 12.2
8/25/26 91.8 1552 49.1 0624 0.00 0.00 0.00 0.219 1.54 595 3.0 13.8 1807 SSW | 210 46.6 85 15 0.0 0.0 0.0 216.8 3.87 0.00 0 - - - - - - - - 12.2
8/24/26 93.4 1519 48.8 0618 0.00 0.00 0.00 0.228 1.55 614 3.0 14.7 1521 WSW | 237 48.1 88 14 0.0 0.0 0.0 237.1 3.02 0.00 0 - - - - - - - - 12.2
8/23/26 95.8 1634 47.5 0558 0.00 0.00 0.00 0.220 1.53 612 2.3 14.2 1748 SSW | 207 47.8 92 13 0.0 0.0 0.0 255.6 3.27 0.32 0 - - - - - - - - 12.2
8/22/26 91.8 1455 45.2 0630 0.00 0.00 0.00 0.223 1.53 627 2.5 16.0 1554 SW | 222 46.3 93 16 0.0 0.0 0.0 216.6 2.82 0.00 0 - - - - - - - - 12.2
8/21/26 90.7 1431 54.5 0038 0.00 0.00 0.00 0.203 1.52 545 2.9 14.7 1602 SSW | 199 50.1 87 18 0.0 0.0 0.0 206.7 4.48 0.00 0 - - - - - - - - 12.2
8/20/26 94.2 1544 52.3 0459 0.00 0.00 0.00 0.214 1.52 572 2.6 14.9 1805 SW | 220 50.6 84 13 0.0 0.0 0.0 259.4 3.40 0.00 10 - - - - - - - - 12.3
8/19/26 97.4 1431 55.2 0626 0.00 0.00 0.00 0.233 1.52 615 2.8 15.8 1533 SSW | 203 54.4 84 24 0.0 0.0 0.0 293.4 2.82 2.07 20 - - - - - - - - 12.2
8/18/26 96.2 1606 54.7 0619 0.00 0.00 0.00 0.226 1.52 610 2.5 17.5 1821 W | 266 51.3 83 19 0.0 0.0 0.0 285.2 3.37 1.67 30 - - - - - - - - 12.2
8/17/26 92.4 1547 57.3 0443 0.00 0.00 0.00 0.215 1.53 586 2.7 13.6 1235 NE | 50 51.0 80 19 0.0 0.0 0.0 236.9 3.16 0.00 40 - - - - - - - - 12.2
8/16/26 91.0 1543 48.2 0642 0.00 0.00 0.00 0.221 1.56 627 2.7 13.8 1151 NNE | 21 52.1 94 25 0.0 0.0 0.0 212.6 3.44 0.00 50 - - - - - - - - 12.2
8/15/26 85.4 1357 47.6 0635 0.00 0.00 0.00 0.205 1.60 604 2.8 16.7 1237 ENE | 78 53.4 96 26 0.0 0.0 0.5 163.1 10.64 0.00 60 - - - - - - - - 12.2
8/14/26 82.1 1530 49.4 0627 0.00 0.00 0.00 0.209 1.65 640 3.4 20.2 1243 NE | 37 54.4 95 35 0.0 0.0 0.0 133.2 9.64 0.00 40 - - - - - - - - 12.2
8/13/26 84.3 1231 52.5 0613 0.00 0.00 0.00 0.216 1.68 632 3.8 16.9 1129 ENE | 61 55.0 93 35 0.0 0.0 0.0 147.4 10.64 0.00 20 - - - - - - - - 12.2
8/12/26 92.2 1330 53.2 0635 0.00 0.00 0.00 0.230 1.72 636 2.9 15.3 1643 SSW | 192 54.9 90 20 0.0 0.0 0.0 242.9 3.88 0.00 0 - - - - - - - - 12.2
8/11/26 95.5 1323 53.7 0644 0.00 0.00 0.00 0.238 1.75 653 2.7 15.3 1611 SSW | 205 55.5 89 21 0.0 0.0 0.0 268.7 3.36 0.06 0 - - - - - - - - 12.2
8/10/26 99.2 1410 52.5 0616 0.00 0.00 0.00 0.242 1.77 629 3.0 16.0 1557 SW | 224 52.9 83 20 0.0 0.0 0.0 310.9 3.12 2.19 0 - - - - - - - - 12.2
8/9/26 103.5 1502 52.9 0629 0.00 0.00 0.00 0.260 1.79 673 2.7 14.2 1552 WSW | 250 49.0 81 13 0.0 0.0 0.0 354.8 2.68 5.99 0 - - - - - - - - 12.2
8/8/26 104.9 1514 55.8 0620 0.00 0.00 0.00 0.259 1.78 662 2.6 14.7 1711 SW | 232 48.3 77 11 0.0 0.0 0.0 396.7 2.94 6.80 0 - - - - - - - - 12.2
8/7/26 100.9 1433 55.4 0616 0.00 0.00 0.00 0.233 1.78 599 2.7 13.6 1842 WSW | 252 51.7 87 13 0.0 0.0 0.0 350.6 3.40 5.17 0 - - - - - - - - 12.2
8/6/26 98.7 1437 53.2 0626 0.00 0.00 0.00 0.256 1.80 673 2.8 15.1 1656 SW | 217 52.3 92 13 0.0 0.0 0.0 313.5 3.10 3.76 0 - - - - - - - - 12.2
8/5/26 100.4 1447 55.9 0614 0.00 0.00 0.00 0.261 1.80 680 3.0 14.7 1443 N | 4 53.3 90 16 0.0 0.0 0.0 317.8 3.16 3.91 0 - - - - - - - - 12.2
Max 104.9 - 57.3 - 0.02 0.02 0.02 0.261 1.80 680 3.8 20.2 - - 55.5 98 47 0.0 0.0 4.4 396.7 10.64 6.80 - - - - - - - - - 12.3
Avg - - - - - - - - - - 2.8 - - - 50.4 - - 0.0 0.0 - - 4.15 1.06 - - - - - - - - - -
Min 70.7 - 41.5 - 0.00 0.00 0.00 0.072 1.07 193 2.3 13.6 - - 42.5 75 11 0.0 0.0 0.0 9.2 0.14 0.00 - - - - - - - - - 12.1
Total - - - - - - - - - - - - - - - - - 0.0 0.0 - - 124.63 31.93 - - - - - - - - - -